Time;durP1;ratioP1;P1;durP2;ratioP2;P2;SDS_P1;SDS_P2;PMS_P1;PMS_P2;Temp;Humidity;BMP_temperature;BMP_pressure;BME280_temperature;BME280_humidity;BME280_pressure;Samples;Min_cycle;Max_cycle;Signal;HPM_P1;HPM_P2
2023/08/30 00:01:02;;;;;;;1.02;0.93;;;;;;;25.88;90.84;99254.06;4988019;28;20096;-73
2023/08/30 00:03:27;;;;;;;1.13;0.77;;;;;;;26.22;91.56;99339.16;4983079;28;20097;-73
2023/08/30 00:05:52;;;;;;;1.30;1.20;;;;;;;25.62;92.21;99245.41;4987098;28;20101;-72
2023/08/30 00:08:19;;;;;;;0.82;0.73;;;;;;;26.18;91.14;99327.81;4982103;28;20081;-75
2023/08/30 00:10:45;;;;;;;1.38;1.27;;;;;;;26.05;92.40;99316.34;4987854;28;20106;-72
2023/08/30 00:13:11;;;;;;;2.05;1.40;;;;;;;26.10;91.54;99320.34;4986890;28;20042;-73
2023/08/30 00:15:36;;;;;;;2.90;1.88;;;;;;;25.13;91.93;99154.50;4986799;28;20433;-74
2023/08/30 00:18:02;;;;;;;1.60;1.48;;;;;;;25.04;92.15;99167.69;4986240;28;20045;-73
2023/08/30 00:20:27;;;;;;;1.77;1.67;;;;;;;25.95;93.69;99326.16;4982364;28;20134;-73
2023/08/30 00:22:53;;;;;;;1.15;1.05;;;;;;;26.09;92.91;99336.63;4978785;28;20030;-73
2023/08/30 00:25:18;;;;;;;0.43;0.40;;;;;;;26.01;94.55;99344.44;4984901;28;20046;-75
2023/08/30 00:27:44;;;;;;;0.90;0.77;;;;;;;25.72;94.34;99315.38;4986837;28;20041;-73
2023/08/30 00:30:10;;;;;;;1.73;0.73;;;;;;;25.31;94.82;99249.72;4979400;28;20043;-73
2023/08/30 00:32:36;;;;;;;0.82;0.57;;;;;;;25.93;95.14;99358.53;4982740;28;20441;-74
2023/08/30 00:35:01;;;;;;;2.03;1.80;;;;;;;25.29;94.89;99251.69;4983619;28;20097;-73
2023/08/30 00:37:27;;;;;;;1.05;1.05;;;;;;;25.92;95.83;99364.00;4985105;28;20039;-73
2023/08/30 00:39:52;;;;;;;1.65;1.55;;;;;;;25.25;95.78;99258.25;4986347;28;20074;-74
2023/08/30 00:42:18;;;;;;;1.75;1.48;;;;;;;25.94;95.18;99379.03;4986913;28;20052;-74
2023/08/30 00:44:43;;;;;;;1.48;1.35;;;;;;;25.35;95.89;99291.47;4984379;28;20034;-74
2023/08/30 00:47:09;;;;;;;5.10;2.25;;;;;;;25.52;99.78;99342.97;4985308;28;20469;-74
2023/08/30 00:49:34;;;;;;;1.80;1.70;;;;;;;25.67;97.93;99361.44;4982440;28;20037;-74
2023/08/30 00:52:05;;;;;;;3.42;1.35;;;;;;;25.80;97.92;99388.19;4982862;28;20042;-74
2023/08/30 00:54:31;;;;;;;1.48;1.35;;;;;;;25.19;97.37;99289.16;4979544;28;20069;-75
2023/08/30 00:56:57;;;;;;;1.17;1.10;;;;;;;24.80;100.00;99268.94;4986302;28;20060;-74
2023/08/30 00:59:24;;;;;;;1.38;0.77;;;;;;;24.46;98.40;99187.47;4983559;28;20034;-74
2023/08/30 01:01:50;;;;;;;1.80;1.65;;;;;;;25.60;99.10;99381.72;4986785;28;20026;-75
2023/08/30 01:04:17;;;;;;;0.55;0.50;;;;;;;25.30;98.21;99336.63;4976812;28;20046;-75
2023/08/30 01:06:43;;;;;;;0.93;0.75;;;;;;;25.23;98.24;99313.91;4981873;28;20046;-74
2023/08/30 01:09:09;;;;;;;8.85;3.05;;;;;;;24.92;98.23;99280.53;4986231;28;20050;-72
2023/08/30 01:12:17;;;;;;;3.60;2.28;;;;;;;25.56;99.50;99392.81;4986209;28;20050;-74
2023/08/30 01:14:54;;;;;;;0.90;0.63;;;;;;;25.33;100.00;99395.47;4961690;28;20475;-74
2023/08/30 01:17:23;;;;;;;0.55;0.55;;;;;;;25.44;100.00;99408.06;4947931;28;20113;-73
2023/08/30 01:20:14;;;;;;;1.73;0.45;;;;;;;24.93;99.69;99298.34;4970980;28;20069;-74
2023/08/30 01:22:47;;;;;;;0.73;0.57;;;;;;;24.80;100.00;99301.13;4981386;28;20049;-73
2023/08/30 01:25:37;;;;;;;1.33;1.13;;;;;;;25.19;100.00;99401.03;4980905;28;20506;-73
2023/08/30 01:28:07;;;;;;;0.20;0.20;;;;;;;24.91;100.00;99370.94;4986498;28;20156;-73
2023/08/30 01:30:37;;;;;;;1.20;0.88;;;;;;;24.66;100.00;99301.34;4986803;28;20530;-73
2023/08/30 01:33:04;;;;;;;2.25;1.63;;;;;;;25.20;100.00;99378.59;4987357;28;20038;-73
2023/08/30 01:35:32;;;;;;;1.00;0.98;;;;;;;25.32;100.00;99398.28;4984573;28;20414;-75
2023/08/30 01:38:00;;;;;;;7.35;2.17;;;;;;;25.09;100.00;99379.38;4986464;28;20109;-73
2023/08/30 01:40:28;;;;;;;1.23;1.00;;;;;;;24.97;100.00;99367.75;4985687;28;20457;-73
2023/08/30 01:42:55;;;;;;;1.15;1.05;;;;;;;25.34;100.00;99396.34;4984037;28;20046;-75
2023/08/30 01:45:23;;;;;;;1.42;1.30;;;;;;;25.20;100.00;99398.25;4986166;28;20050;-74
2023/08/30 01:47:49;;;;;;;0.75;0.55;;;;;;;24.97;100.00;99358.88;4978316;28;20049;-74
2023/08/30 01:50:16;;;;;;;1.33;1.08;;;;;;;24.29;100.00;99287.97;4986108;28;20169;-73
2023/08/30 01:52:42;;;;;;;2.85;1.70;;;;;;;24.44;100.00;99290.38;4986581;28;20038;-74
2023/08/30 01:55:09;;;;;;;1.95;1.30;;;;;;;25.08;100.00;99375.00;4987072;28;20030;-72
2023/08/30 01:57:34;;;;;;;1.83;1.63;;;;;;;24.62;100.00;99301.53;4989045;28;20050;-73
2023/08/30 02:00:00;;;;;;;2.03;1.90;;;;;;;24.51;100.00;99300.66;4980189;28;20387;-73
2023/08/30 02:02:29;;;;;;;0.82;0.82;;;;;;;24.78;100.00;99333.44;4988006;28;20041;-74
2023/08/30 02:04:54;;;;;;;4.95;2.63;;;;;;;24.57;100.00;99302.88;4989557;28;20042;-74
2023/08/30 02:07:28;;;;;;;2.75;2.10;;;;;;;24.53;100.00;99301.41;4989402;28;20042;-73
2023/08/30 02:10:06;;;;;;;4.82;0.90;;;;;;;24.30;100.00;99348.66;4984974;28;20046;-74
2023/08/30 02:12:53;;;;;;;6.20;2.67;;;;;;;24.06;100.00;99305.78;4988352;28;20157;-73
2023/08/30 02:15:20;;;;;;;1.83;1.20;;;;;;;23.98;100.00;99341.19;4977462;28;20046;-76
2023/08/30 02:17:48;;;;;;;1.63;1.52;;;;;;;24.34;100.00;99371.63;4988537;28;20566;-73
2023/08/30 02:20:13;;;;;;;1.17;1.08;;;;;;;24.32;100.00;99369.03;4989356;28;20100;-74
2023/08/30 02:22:39;;;;;;;2.35;1.63;;;;;;;23.77;100.00;99261.41;4989357;28;20485;-73
2023/08/30 02:25:04;;;;;;;1.30;1.08;;;;;;;24.19;100.00;99358.38;4985926;28;20553;-73
2023/08/30 02:27:34;;;;;;;1.17;0.80;;;;;;;24.29;100.00;99345.13;4984635;28;20050;-73
2023/08/30 02:30:00;;;;;;;1.08;0.65;;;;;;;23.49;100.00;99184.84;4986051;28;20079;-72
2023/08/30 02:32:25;;;;;;;1.10;0.93;;;;;;;24.05;100.00;99291.53;4984033;28;20038;-73
2023/08/30 02:34:52;;;;;;;4.93;2.05;;;;;;;23.84;100.00;99260.97;4989532;28;20022;-74
2023/08/30 02:37:19;;;;;;;5.53;1.67;;;;;;;24.39;100.00;99356.88;4987438;28;20039;-72
2023/08/30 02:39:44;;;;;;;1.20;1.10;;;;;;;23.75;100.00;99244.56;4988454;28;20076;-73
2023/08/30 02:42:10;;;;;;;1.15;1.05;;;;;;;24.28;100.00;99339.88;4980607;28;20648;-74
2023/08/30 02:44:35;;;;;;;1.13;0.82;;;;;;;23.72;100.00;99260.84;4980780;28;20469;-74
2023/08/30 02:47:01;;;;;;;1.15;0.88;;;;;;;24.36;100.00;99351.75;4989190;28;20030;-73
2023/08/30 02:49:26;;;;;;;3.35;2.13;;;;;;;23.79;100.00;99277.38;4979277;28;20062;-74
2023/08/30 02:51:52;;;;;;;2.15;1.88;;;;;;;23.46;100.00;99229.72;4979843;28;20436;-73
2023/08/30 02:54:17;;;;;;;2.03;1.52;;;;;;;23.69;100.00;99246.81;4980462;28;20406;-73
2023/08/30 02:56:44;;;;;;;2.08;1.23;;;;;;;23.50;100.00;99231.22;4985238;28;20058;-73
2023/08/30 02:59:10;;;;;;;2.45;1.40;;;;;;;24.10;100.00;99337.59;4980480;28;20113;-74
2023/08/30 03:01:36;;;;;;;2.80;2.30;;;;;;;23.90;100.00;99317.59;4988779;28;20403;-74
2023/08/30 03:04:03;;;;;;;1.40;0.50;;;;;;;23.58;100.00;99269.03;4985330;28;20058;-74
2023/08/30 03:06:28;;;;;;;1.05;0.95;;;;;;;23.89;100.00;99339.16;4983675;28;20498;-74
2023/08/30 03:08:54;;;;;;;0.88;0.63;;;;;;;23.40;100.00;99257.81;4984861;28;20049;-73
2023/08/30 03:11:19;;;;;;;1.80;1.70;;;;;;;24.09;100.00;99370.75;4980290;28;20034;-74
2023/08/30 03:13:45;;;;;;;1.00;0.90;;;;;;;23.74;100.00;99331.28;4985152;28;20489;-75
2023/08/30 03:16:14;;;;;;;1.00;0.95;;;;;;;23.96;100.00;99362.72;4981173;28;21826;-75
2023/08/30 03:18:41;;;;;;;1.83;1.23;;;;;;;23.71;100.00;99338.63;4988089;28;20080;-76
2023/08/30 03:21:08;;;;;;;4.45;2.92;;;;;;;22.88;100.00;99264.16;4983620;28;20398;-75
2023/08/30 03:23:35;;;;;;;1.80;1.70;;;;;;;23.37;100.00;99370.50;4980556;28;20054;-74
2023/08/30 03:26:14;;;;;;;1.08;1.02;;;;;;;23.04;100.00;99277.31;4981981;28;20046;-75
2023/08/30 03:28:41;;;;;;;1.80;1.50;;;;;;;23.44;100.00;99382.47;4986825;28;20047;-75
2023/08/30 03:31:15;;;;;;;3.47;1.58;;;;;;;23.38;100.00;99380.22;4984624;28;20046;-75
2023/08/30 03:33:43;;;;;;;1.63;1.52;;;;;;;23.16;100.00;99357.63;4979726;28;20154;-74
2023/08/30 03:36:14;;;;;;;0.45;0.30;;;;;;;23.11;100.00;99333.00;4985064;28;20043;-74
2023/08/30 03:38:39;;;;;;;0.95;0.77;;;;;;;22.99;100.00;99309.75;4984943;28;20042;-74
2023/08/30 03:41:05;;;;;;;1.58;1.48;;;;;;;23.18;100.00;99373.59;4985930;28;20040;-74
2023/08/30 03:43:31;;;;;;;1.55;1.08;;;;;;;23.26;100.00;99368.53;4987360;28;20144;-75
2023/08/30 03:45:59;;;;;;;1.63;1.42;;;;;;;23.43;100.00;99383.44;4985364;28;20050;-73
2023/08/30 03:48:25;;;;;;;2.60;1.38;;;;;;;22.85;100.00;99285.72;4977666;28;20509;-73
2023/08/30 03:50:51;;;;;;;0.70;0.60;;;;;;;22.84;100.00;99292.91;4986128;28;20089;-76
2023/08/30 03:53:16;;;;;;;2.28;1.63;;;;;;;23.38;100.00;99389.09;4980877;28;20043;-74
2023/08/30 03:55:42;;;;;;;1.40;1.30;;;;;;;22.74;100.00;99300.72;4987273;28;20044;-75
2023/08/30 03:58:07;;;;;;;2.30;1.52;;;;;;;23.24;100.00;99381.19;4985749;28;20046;-75
2023/08/30 04:00:36;;;;;;;0.52;0.52;;;;;;;22.76;100.00;99308.66;4981286;28;20067;-76
2023/08/30 04:03:01;;;;;;;0.95;0.93;;;;;;;23.14;100.00;99398.84;4986687;28;20506;-76
2023/08/30 04:05:31;;;;;;;1.70;1.13;;;;;;;22.92;100.00;99400.28;4983618;28;20145;-74
2023/08/30 04:07:57;;;;;;;0.75;0.75;;;;;;;22.28;100.00;99300.28;4984773;28;20034;-75
2023/08/30 04:10:22;;;;;;;0.80;0.80;;;;;;;22.52;100.00;99314.69;4984295;28;20062;-75
2023/08/30 04:12:47;;;;;;;2.65;2.45;;;;;;;22.77;100.00;99355.81;4983836;28;20054;-74
2023/08/30 04:15:13;;;;;;;2.40;2.20;;;;;;;22.71;100.00;99308.06;4980883;28;20062;-75
2023/08/30 04:17:38;;;;;;;4.15;1.52;;;;;;;23.31;100.00;99419.94;4980308;28;20546;-75
2023/08/30 04:20:04;;;;;;;2.05;1.33;;;;;;;23.29;100.00;99392.41;4979217;28;20072;-76
2023/08/30 04:22:31;;;;;;;1.52;1.35;;;;;;;22.64;100.00;99306.78;4979155;28;20049;-74
2023/08/30 04:24:56;;;;;;;0.75;0.75;;;;;;;22.74;100.00;99308.75;4980536;28;20104;-75
2023/08/30 04:27:21;;;;;;;3.00;2.13;;;;;;;22.91;100.00;99314.75;4983548;28;20503;-75
2023/08/30 04:29:47;;;;;;;0.70;0.70;;;;;;;23.37;100.00;99402.63;4981827;28;20054;-76
2023/08/30 04:32:13;;;;;;;0.65;0.57;;;;;;;23.03;100.00;99331.81;4984003;28;20140;-75
2023/08/30 04:34:38;;;;;;;2.35;2.15;;;;;;;23.00;100.00;99308.81;4979794;28;20697;-74
2023/08/30 04:37:04;;;;;;;2.17;1.75;;;;;;;23.44;100.00;99397.69;5011378;28;20046;-75
2023/08/30 04:39:29;;;;;;;1.67;1.58;;;;;;;23.62;100.00;99409.78;4986347;28;20049;-75
2023/08/30 04:41:55;;;;;;;1.30;1.20;;;;;;;23.33;100.00;99368.97;4984416;28;20398;-75
2023/08/30 04:44:24;;;;;;;29.90;3.38;;;;;;;23.14;100.00;99310.53;4985859;28;20061;-75
2023/08/30 04:46:49;;;;;;;1.67;1.58;;;;;;;23.16;100.00;99314.81;4983568;28;20035;-75
2023/08/30 04:49:16;;;;;;;1.65;0.95;;;;;;;23.76;100.00;99419.56;4977524;28;20530;-73
2023/08/30 04:51:41;;;;;;;1.52;1.42;;;;;;;23.79;100.00;99417.53;4978428;28;20058;-75
2023/08/30 04:54:07;;;;;;;2.10;1.70;;;;;;;23.80;100.00;99413.88;4985896;28;20126;-74
2023/08/30 04:56:32;;;;;;;0.68;0.52;;;;;;;23.25;100.00;99309.75;4981081;28;20050;-75
2023/08/30 04:58:58;;;;;;;1.25;1.02;;;;;;;23.47;100.00;99315.31;4975604;28;20031;-74
2023/08/30 05:01:23;;;;;;;4.22;2.20;;;;;;;24.01;100.00;99410.63;4974599;28;20058;-74
2023/08/30 05:03:49;;;;;;;3.90;3.55;;;;;;;23.99;100.00;99408.06;4978690;28;20557;-73
2023/08/30 05:06:16;;;;;;;2.05;1.85;;;;;;;23.75;100.00;99399.09;4984476;28;20062;-74
2023/08/30 05:08:41;;;;;;;5.68;2.03;;;;;;;23.92;100.00;99427.38;4979460;28;20125;-74
2023/08/30 05:11:07;;;;;;;1.38;1.27;;;;;;;24.21;100.00;99430.66;4984702;28;20030;-74
2023/08/30 05:13:32;;;;;;;1.58;1.48;;;;;;;24.05;100.00;99404.09;4980988;28;20042;-74
2023/08/30 05:15:58;;;;;;;2.42;2.08;;;;;;;24.46;100.00;99400.19;4978730;28;20603;-74
2023/08/30 05:18:23;;;;;;;2.75;2.13;;;;;;;25.08;100.00;99399.16;4978072;28;20150;-75
2023/08/30 05:20:49;;;;;;;27.75;1.65;;;;;;;26.16;100.00;99423.03;4984494;28;20795;-75
2023/08/30 05:23:14;;;;;;;1.05;0.90;;;;;;;26.89;100.00;99425.06;4984050;28;20081;-76
2023/08/30 05:25:40;;;;;;;4.93;3.40;;;;;;;27.25;99.56;99435.59;4980901;28;20411;-73
2023/08/30 05:28:05;;;;;;;1.20;1.10;;;;;;;27.62;92.07;99438.66;4983160;28;20110;-74
2023/08/30 05:30:30;;;;;;;1.42;1.27;;;;;;;27.29;87.82;99361.59;4975686;28;20046;-73
2023/08/30 05:32:56;;;;;;;1.63;1.52;;;;;;;27.21;91.56;99440.38;4982094;28;20050;-72
2023/08/30 05:35:21;;;;;;;1.30;1.20;;;;;;;26.42;92.12;99348.28;4987181;28;20034;-73
2023/08/30 05:37:47;;;;;;;0.95;0.73;;;;;;;27.36;91.64;99449.00;4988511;28;20035;-73
2023/08/30 05:40:16;;;;;;;0.85;0.75;;;;;;;26.29;97.29;99359.19;4983508;28;20047;-74
2023/08/30 05:42:42;;;;;;;5.00;2.10;;;;;;;27.52;92.52;99456.63;4988675;28;20050;-72
2023/08/30 05:45:08;;;;;;;1.33;1.23;;;;;;;28.84;81.00;99463.84;4988114;28;20087;-73
2023/08/30 05:47:33;;;;;;;0.77;0.77;;;;;;;28.74;74.62;99368.50;4981390;28;20038;-74
2023/08/30 05:49:59;;;;;;;1.45;1.27;;;;;;;29.58;71.01;99468.69;4989510;28;20441;-72
2023/08/30 05:52:25;;;;;;;1.30;1.05;;;;;;;28.87;69.88;99365.50;4988666;28;20081;-73
2023/08/30 05:54:50;;;;;;;2.25;2.05;;;;;;;28.65;72.92;99426.88;4984670;28;20050;-74
2023/08/30 05:57:16;;;;;;;1.15;1.08;;;;;;;27.88;79.63;99392.41;4989164;28;20116;-71
2023/08/30 05:59:41;;;;;;;1.20;1.13;;;;;;;27.68;84.53;99472.34;4982196;28;20451;-72
2023/08/30 06:02:07;;;;;;;2.40;2.20;;;;;;;29.45;73.17;99479.84;4988991;28;20033;-73
2023/08/30 06:04:32;;;;;;;1.02;0.93;;;;;;;28.84;76.14;99480.06;4980861;28;20178;-72
2023/08/30 06:06:58;;;;;;;0.88;0.85;;;;;;;28.94;73.35;99424.22;4985152;28;20367;-73
2023/08/30 06:09:23;;;;;;;0.80;0.80;;;;;;;29.71;69.85;99470.25;4981933;28;20101;-72
2023/08/30 06:11:49;;;;;;;1.02;0.80;;;;;;;30.00;67.12;99473.75;4986156;28;20238;-73
2023/08/30 06:14:14;;;;;;;1.90;1.70;;;;;;;29.58;66.52;99438.97;4980742;28;20175;-72
2023/08/30 06:16:44;;;;;;;2.33;1.70;;;;;;;29.76;64.79;99405.75;4969520;28;20038;-73
2023/08/30 06:19:10;;;;;;;1.90;1.60;;;;;;;30.20;64.87;99503.44;4985284;28;20042;-73
2023/08/30 06:21:35;;;;;;;1.90;1.60;;;;;;;30.16;65.53;99510.16;4983811;28;20053;-72
2023/08/30 06:24:01;;;;;;;1.38;1.25;;;;;;;29.21;69.94;99412.69;4985154;28;20051;-73
2023/08/30 06:26:27;;;;;;;0.90;0.82;;;;;;;29.74;68.40;99491.63;4993334;28;20142;-74
2023/08/30 06:28:52;;;;;;;3.85;1.83;;;;;;;30.00;66.47;99494.53;4982960;28;20037;-73
2023/08/30 06:31:18;;;;;;;9.65;2.08;;;;;;;29.67;66.56;99435.41;4988568;28;20034;-74
2023/08/30 06:33:44;;;;;;;1.65;1.55;;;;;;;28.95;69.91;99415.09;4983818;28;20050;-72
2023/08/30 06:36:11;;;;;;;0.47;0.47;;;;;;;29.63;68.32;99512.38;4987002;28;20157;-72
2023/08/30 06:38:37;;;;;;;2.08;0.88;;;;;;;28.83;73.63;99511.63;4978657;28;20096;-73
2023/08/30 06:41:02;;;;;;;1.10;1.00;;;;;;;28.75;73.93;99421.47;4986442;28;20530;-73
2023/08/30 06:43:28;;;;;;;0.70;0.70;;;;;;;29.45;73.81;99519.50;4983155;28;20049;-74
2023/08/30 06:45:57;;;;;;;2.60;1.73;;;;;;;28.42;74.21;99413.63;4980477;28;20062;-73
2023/08/30 06:48:22;;;;;;;1.25;1.13;;;;;;;28.13;85.60;99510.63;4987676;28;20418;-72
2023/08/30 06:50:48;;;;;;;1.23;1.13;;;;;;;27.76;85.52;99430.22;4980905;28;20039;-74
2023/08/30 06:53:13;;;;;;;1.10;0.63;;;;;;;27.88;86.66;99449.03;4987704;28;20061;-73
2023/08/30 06:55:38;;;;;;;3.03;2.55;;;;;;;27.45;93.73;99507.50;4982744;28;20031;-74
2023/08/30 06:58:04;;;;;;;0.65;0.60;;;;;;;26.51;99.60;99418.31;4987934;28;20038;-73
2023/08/30 07:00:30;;;;;;;10.68;1.70;;;;;;;27.16;99.59;99502.69;4985903;28;20049;-79
2023/08/30 07:02:56;;;;;;;0.73;0.43;;;;;;;27.17;98.82;99493.63;4985431;28;20121;-79
2023/08/30 07:05:23;;;;;;;1.95;1.85;;;;;;;27.62;91.58;99452.13;4986379;28;20371;-77
2023/08/30 07:07:48;;;;;;;0.63;0.63;;;;;;;28.01;89.60;99500.94;4987411;28;20062;-77
2023/08/30 07:10:14;;;;;;;1.17;1.08;;;;;;;27.35;97.22;99507.41;4997940;28;20043;-79
2023/08/30 07:12:39;;;;;;;3.63;2.20;;;;;;;27.09;99.80;99498.81;4987285;28;20076;-78
2023/08/30 07:15:05;;;;;;;2.40;2.20;;;;;;;26.21;100.00;99420.81;4987304;28;20052;-75
2023/08/30 07:17:31;;;;;;;2.72;2.08;;;;;;;26.95;100.00;99488.34;4989433;28;20050;-77
2023/08/30 07:19:56;;;;;;;0.57;0.47;;;;;;;27.08;98.71;99496.22;4982616;28;20068;-75
2023/08/30 07:22:21;;;;;;;1.38;1.27;;;;;;;27.32;98.76;99494.22;4983244;28;20043;-78
2023/08/30 07:24:47;;;;;;;2.40;2.20;;;;;;;27.65;95.13;99503.09;4982411;28;20058;-77
2023/08/30 07:27:12;;;;;;;0.68;0.65;;;;;;;27.08;93.83;99408.22;4978198;28;20054;-77
2023/08/30 07:29:40;;;;;;;1.98;1.13;;;;;;;27.26;96.74;99472.31;4979726;28;20057;-76
2023/08/30 07:32:06;;;;;;;2.45;2.25;;;;;;;26.97;100.00;99489.03;4979819;28;20062;-74
2023/08/30 07:34:31;;;;;;;1.80;1.52;;;;;;;26.75;100.00;99425.38;4987189;28;20076;-72
2023/08/30 07:36:57;;;;;;;2.58;2.38;;;;;;;27.20;96.19;99429.72;4981113;28;20042;-75
2023/08/30 07:39:23;;;;;;;1.13;0.95;;;;;;;27.43;97.86;99505.91;4986295;28;20054;-73
2023/08/30 07:41:48;;;;;;;1.50;1.40;;;;;;;26.69;99.82;99421.38;4987126;28;20057;-77
2023/08/30 07:44:14;;;;;;;3.72;1.85;;;;;;;27.11;96.13;99442.09;4987260;28;20034;-81
2023/08/30 07:46:39;;;;;;;2.95;2.72;;;;;;;26.90;97.95;99413.34;4978639;28;20066;-73
2023/08/30 07:49:05;;;;;;;2.10;1.60;;;;;;;27.76;94.90;99508.41;4984862;28;20050;-71
2023/08/30 07:51:30;;;;;;;1.65;1.40;;;;;;;27.87;93.86;99502.13;4978306;28;20102;-73
2023/08/30 07:53:56;;;;;;;1.40;1.27;;;;;;;27.69;93.39;99498.28;4986050;28;20042;-74
2023/08/30 07:56:21;;;;;;;3.50;3.22;;;;;;;27.19;95.38;99406.47;4975655;28;20053;-72
2023/08/30 07:58:47;;;;;;;1.58;1.05;;;;;;;28.16;92.23;99496.03;4984454;28;20030;-70
2023/08/30 08:01:12;;;;;;;3.20;1.98;;;;;;;27.68;89.99;99423.81;4977696;28;20051;-70
2023/08/30 08:03:38;;;;;;;1.30;1.20;;;;;;;28.16;90.41;99488.78;4986391;28;20037;-71
2023/08/30 08:06:03;;;;;;;1.88;0.85;;;;;;;27.82;92.81;99419.91;4984165;28;20042;-71
2023/08/30 08:08:29;;;;;;;3.03;2.78;;;;;;;28.25;90.94;99486.28;4983347;28;20710;-73
2023/08/30 08:10:55;;;;;;;2.47;1.92;;;;;;;27.91;91.87;99427.19;4986976;28;20343;-72
2023/08/30 08:13:20;;;;;;;1.85;1.30;;;;;;;27.82;90.12;99411.81;4983551;28;20039;-72
2023/08/30 08:15:46;;;;;;;1.98;1.08;;;;;;;28.38;90.75;99493.13;4984446;28;20038;-73
2023/08/30 08:18:11;;;;;;;13.45;2.08;;;;;;;28.03;88.87;99409.09;4985116;28;20402;-72
2023/08/30 08:20:37;;;;;;;5.88;1.98;;;;;;;28.05;87.45;99434.94;4980524;28;20039;-74
2023/08/30 08:23:03;;;;;;;3.28;2.97;;;;;;;27.99;87.94;99427.38;4975685;28;20035;-72
2023/08/30 08:25:29;;;;;;;1.98;1.42;;;;;;;26.81;91.05;99330.66;4983983;28;20426;-73
2023/08/30 08:27:54;;;;;;;2.30;2.03;;;;;;;27.73;89.91;99397.31;4986736;28;20046;-72
2023/08/30 08:30:22;;;;;;;2.58;2.38;;;;;;;27.53;92.00;99434.94;4984040;28;20078;-71
2023/08/30 08:32:48;;;;;;;2.22;1.35;;;;;;;27.71;87.85;99401.97;4981043;28;20549;-71
2023/08/30 08:35:14;;;;;;;0.82;0.65;;;;;;;28.21;87.82;99482.97;4972392;28;20038;-72
2023/08/30 08:37:39;;;;;;;1.88;1.48;;;;;;;27.98;86.08;99396.03;4986637;28;20652;-72
2023/08/30 08:40:08;;;;;;;1.63;1.52;;;;;;;27.98;87.02;99464.28;4986014;28;20502;-71
2023/08/30 08:42:35;;;;;;;6.13;3.40;;;;;;;28.26;87.35;99463.69;4984977;28;20362;-72
2023/08/30 08:45:02;;;;;;;3.30;3.00;;;;;;;28.33;87.95;99483.72;4981674;28;20449;-73
2023/08/30 08:47:30;;;;;;;5.30;1.92;;;;;;;27.71;89.86;99404.66;4986011;28;20490;-71
2023/08/30 08:49:56;;;;;;;1.50;1.30;;;;;;;28.03;87.51;99377.59;4980915;28;20038;-73
2023/08/30 08:52:23;;;;;;;3.13;2.40;;;;;;;28.49;83.54;99442.75;4985871;28;20109;-73
2023/08/30 08:54:49;;;;;;;2.42;2.22;;;;;;;28.11;84.94;99399.31;4984049;28;20113;-73
2023/08/30 08:57:15;;;;;;;2.30;2.15;;;;;;;27.89;84.99;99421.97;4983509;28;20054;-73
2023/08/30 08:59:41;;;;;;;1.88;1.25;;;;;;;27.66;85.85;99396.13;4983675;28;20062;-74
2023/08/30 09:02:07;;;;;;;3.22;2.55;;;;;;;28.26;87.48;99436.69;4984158;28;20066;-72
2023/08/30 09:04:33;;;;;;;5.15;1.67;;;;;;;28.81;81.57;99472.25;4982569;28;20154;-77
2023/08/30 09:07:00;;;;;;;3.65;3.35;;;;;;;28.73;81.93;99466.66;4990059;28;20038;-72
2023/08/30 09:09:26;;;;;;;2.25;1.95;;;;;;;28.73;75.49;99402.75;4989300;28;20097;-75
2023/08/30 09:11:51;;;;;;;1.17;1.08;;;;;;;28.64;75.58;99392.78;4986059;28;20569;-75
2023/08/30 09:14:18;;;;;;;1.08;1.02;;;;;;;29.60;73.29;99465.84;4985478;28;20037;-76
2023/08/30 09:17:03;;;;;;;2.33;1.30;;;;;;;29.37;73.84;99462.63;4979819;28;20035;-75
2023/08/30 09:19:28;;;;;;;1.90;1.70;;;;;;;29.44;74.65;99452.94;4983346;28;20222;-75
2023/08/30 09:21:58;;;;;;;1.83;1.38;;;;;;;29.53;76.35;99457.47;4990248;28;20547;-74
2023/08/30 09:24:24;;;;;;;2.30;2.15;;;;;;;29.61;72.86;99441.34;4987324;28;20705;-75
2023/08/30 09:26:54;;;;;;;1.63;1.40;;;;;;;29.17;72.27;99403.19;4984149;28;20120;-81
2023/08/30 09:29:22;;;;;;;1.45;1.35;;;;;;;29.44;72.75;99424.03;4988382;28;20066;-76
2023/08/30 09:31:52;;;;;;;0.77;0.68;;;;;;;29.38;73.68;99443.53;4981736;28;20166;-77
2023/08/30 09:34:23;;;;;;;6.03;1.67;;;;;;;29.62;72.83;99442.22;4986462;28;20125;-75
2023/08/30 09:36:50;;;;;;;1.52;1.17;;;;;;;29.86;72.97;99447.16;4983859;28;20046;-74
2023/08/30 09:39:15;;;;;;;3.03;2.78;;;;;;;29.37;70.89;99376.97;4986456;28;20539;-77
2023/08/30 09:41:42;;;;;;;1.52;1.42;;;;;;;29.64;70.79;99442.91;4989211;28;20077;-78
2023/08/30 09:44:16;;;;;;;0.43;0.43;;;;;;;29.35;71.47;99364.59;4986150;28;20038;-76
2023/08/30 09:46:53;;;;;;;1.08;0.80;;;;;;;29.10;71.21;99355.25;4988502;28;20137;-75
2023/08/30 09:49:25;;;;;;;3.58;2.47;;;;;;;29.62;71.59;99450.34;4988378;28;20104;-75
2023/08/30 09:51:54;;;;;;;3.13;2.45;;;;;;;29.82;70.90;99361.91;5020539;28;21216;-75
2023/08/30 09:54:22;;;;;;;1.13;0.88;;;;;;;30.15;65.91;99344.19;4985818;28;20177;-83
2023/08/30 09:56:47;;;;;;;1.13;0.68;;;;;;;30.43;64.55;99401.06;4984485;28;20085;-76
2023/08/30 09:59:15;;;;;;;1.23;1.02;;;;;;;30.92;63.23;99425.94;4976668;28;20092;-77
2023/08/30 10:01:43;;;;;;;1.55;1.45;;;;;;;30.73;62.69;99431.50;4986463;28;20037;-78
2023/08/30 10:04:09;;;;;;;3.47;3.17;;;;;;;30.69;62.34;99328.03;4987332;28;20026;-76
2023/08/30 10:06:36;;;;;;;0.93;0.88;;;;;;;31.58;60.67;99411.06;4987669;28;20153;-77
2023/08/30 10:09:04;;;;;;;0.88;0.88;;;;;;;31.27;59.33;99433.19;4988864;28;20050;-78
2023/08/30 10:11:32;;;;;;;1.35;1.05;;;;;;;32.04;58.70;99386.44;4984117;28;20588;-79
2023/08/30 10:13:59;;;;;;;0.70;0.63;;;;;;;32.06;56.22;99419.69;4989390;28;20563;-78
2023/08/30 10:16:27;;;;;;;1.38;1.27;;;;;;;32.57;56.18;99418.72;4987886;28;20043;-77
2023/08/30 10:18:59;;;;;;;2.15;1.90;;;;;;;31.94;54.71;99332.25;4988329;28;20518;-74
2023/08/30 10:21:27;;;;;;;0.85;0.68;;;;;;;32.24;55.57;99406.00;4984682;28;20041;-78
2023/08/30 10:23:55;;;;;;;0.40;0.40;;;;;;;31.87;55.50;99408.03;4972371;28;20061;-74
2023/08/30 10:26:24;;;;;;;4.78;2.13;;;;;;;32.22;54.64;99414.34;4986272;28;20034;-75
2023/08/30 10:28:52;;;;;;;1.00;1.00;;;;;;;31.50;56.05;99381.22;4983375;28;20026;-76
2023/08/30 10:31:18;;;;;;;0.52;0.38;;;;;;;32.18;55.92;99399.38;4985591;28;20359;-74
2023/08/30 10:33:49;;;;;;;0.93;0.90;;;;;;;32.85;53.54;99393.09;4987539;28;20046;-75
2023/08/30 10:36:24;;;;;;;1.85;1.30;;;;;;;32.93;52.78;99360.50;4986638;28;20151;-75
2023/08/30 10:38:50;;;;;;;1.35;1.15;;;;;;;31.88;54.41;99408.88;4978534;28;20038;-74
2023/08/30 10:41:26;;;;;;;0.70;0.60;;;;;;;32.25;55.45;99407.72;4987988;28;20171;-76
2023/08/30 10:43:52;;;;;;;1.02;0.93;;;;;;;31.57;55.01;99325.31;4988211;28;20045;-74
2023/08/30 10:46:33;;;;;;;1.40;1.13;;;;;;;32.24;54.36;99373.41;4985644;28;20457;-74
2023/08/30 10:49:14;;;;;;;1.83;1.73;;;;;;;32.36;54.27;99404.72;4986825;28;20104;-74
2023/08/30 10:51:41;;;;;;;1.63;1.52;;;;;;;32.14;54.30;99352.69;4981824;28;20524;-73
2023/08/30 10:54:17;;;;;;;4.18;3.05;;;;;;;32.84;52.13;99337.06;4987098;28;20884;-76
2023/08/30 10:56:55;;;;;;;1.15;0.88;;;;;;;32.72;51.21;99321.09;4981796;28;20133;-73
2023/08/30 10:59:21;;;;;;;3.72;1.85;;;;;;;33.04;52.06;99335.72;4983554;28;20056;-75
2023/08/30 11:01:48;;;;;;;1.40;1.30;;;;;;;31.69;52.65;99380.13;5019097;28;20505;-76
2023/08/30 11:04:15;;;;;;;0.40;0.38;;;;;;;32.18;52.60;99377.66;4984220;28;20080;-75
2023/08/30 11:06:45;;;;;;;1.48;1.23;;;;;;;32.07;53.00;99391.53;4986319;28;20042;-75
2023/08/30 11:09:14;;;;;;;1.85;1.75;;;;;;;31.87;53.05;99394.47;4986621;28;20147;-75
2023/08/30 11:11:39;;;;;;;2.47;2.28;;;;;;;31.78;52.39;99332.19;4987304;28;20072;-75
2023/08/30 11:14:08;;;;;;;0.63;0.63;;;;;;;32.20;52.41;99310.47;4983739;28;20045;-74
2023/08/30 11:16:37;;;;;;;1.27;1.17;;;;;;;33.04;52.19;99391.91;4986957;28;20049;-76
2023/08/30 11:19:08;;;;;;;4.57;1.95;;;;;;;32.63;51.80;99304.97;4990494;28;20057;-76
2023/08/30 11:21:36;;;;;;;0.85;0.85;;;;;;;31.70;52.59;99284.16;4986425;28;20046;-75
2023/08/30 11:24:03;;;;;;;1.35;1.15;;;;;;;32.56;51.09;99305.63;4982328;28;20038;-76
2023/08/30 11:26:29;;;;;;;0.73;0.73;;;;;;;32.66;51.14;99293.75;4986526;28;20042;-74
2023/08/30 11:28:54;;;;;;;0.40;0.40;;;;;;;33.25;49.14;99342.47;4983326;28;20434;-74